MEM weather

Memphis International Airport
Memphis, Tennessee, United States

Public forecast

Using degrees Fahrenheit for public forecast. Weather courtesy of forecast.io.

Current aviation weather report (METAR) for Memphis International Airport

Retrieved 2019/11/21 20:12 UTC (10 minutes ago):

KMEM 212012Z 18005KT 4SM -RA BR SCT009 BKN026 OVC043 13/13 A3006 RMK AO2 P0000 T01330128

Aviation forecast (TAF) for Memphis International Airport

Retrieved 2019/11/21 18:22 UTC (2 hours ago):

TAF KMEM 211720Z 2118/2224 19009KT P6SM VCSH SCT018 BKN050 OVC100 FM212100 19010KT P6SM VCSH BKN030 FM220500 18008KT P6SM -SHRA OVC020 FM221000 20010KT 6SM -SHRA OVC009 FM221300 33010KT 3SM -SHRA BR OVC004 FM221600 03008KT 3SM RA BR OVC010